createdAt,value
2023-04-30T04:55:14.007Z,8.90
2023-04-30T05:00:18.499Z,8.90
2023-04-30T05:05:21.983Z,9.40
2023-04-30T05:10:26.845Z,10.10
2023-04-30T05:15:31.112Z,10.10
2023-04-30T05:20:34.605Z,10.10
2023-04-30T05:25:39.919Z,10.00
2023-04-30T05:30:43.362Z,10.10
2023-04-30T05:35:46.853Z,10.10
2023-04-30T05:40:51.744Z,10.20
2023-04-30T05:45:55.215Z,10.20
2023-04-30T05:50:58.657Z,10.30
2023-04-30T05:56:03.946Z,10.40
2023-04-30T06:01:11.009Z,10.40
2023-04-30T06:06:14.800Z,10.60
2023-04-30T06:11:19.628Z,10.70
2023-04-30T06:16:23.172Z,10.80
2023-04-30T06:21:26.897Z,10.80
2023-04-30T06:26:32.118Z,10.90
2023-04-30T06:31:36.210Z,11.00
2023-04-30T06:36:39.686Z,11.00
2023-04-30T06:41:44.716Z,11.00
2023-04-30T06:46:48.237Z,11.30
2023-04-30T06:51:51.617Z,11.50
2023-04-30T06:56:56.427Z,11.50
2023-04-30T07:01:59.911Z,11.60
2023-04-30T07:07:03.436Z,11.70
2023-04-30T07:12:08.920Z,11.60
2023-04-30T07:17:12.466Z,11.90
2023-04-30T07:22:40.835Z,12.00
2023-04-30T07:27:46.066Z,12.20
2023-04-30T07:32:50.581Z,12.30
2023-04-30T07:37:54.038Z,12.30
2023-04-30T07:42:59.095Z,12.30
2023-04-30T07:48:03.065Z,12.60
2023-04-30T07:53:09.397Z,12.70
2023-04-30T07:58:14.232Z,12.80
2023-04-30T08:03:20.084Z,12.90
2023-04-30T08:08:23.755Z,13.10
2023-04-30T08:13:28.638Z,13.20
2023-04-30T08:18:32.545Z,13.20
2023-04-30T08:23:36.051Z,13.30
2023-04-30T08:28:40.960Z,13.30
2023-04-30T08:33:44.709Z,13.50
2023-04-30T08:38:48.287Z,13.50
2023-04-30T08:43:54.724Z,13.70
2023-04-30T08:48:58.773Z,13.70
2023-04-30T08:54:02.233Z,13.70
2023-04-30T08:59:07.114Z,13.40
2023-04-30T09:04:10.771Z,13.20
2023-04-30T09:09:15.503Z,13.20
2023-04-30T09:14:27.251Z,13.10
2023-04-30T09:19:32.169Z,13.20
2023-04-30T09:24:48.076Z,13.20
2023-04-30T09:29:53.037Z,13.10
2023-04-30T09:34:57.235Z,13.20
2023-04-30T09:40:00.978Z,13.30
2023-04-30T09:45:08.155Z,13.30
2023-04-30T09:50:15.085Z,13.50
2023-04-30T09:55:19.547Z,13.60
2023-04-30T10:00:24.917Z,13.80
2023-04-30T10:05:28.949Z,13.90
2023-04-30T10:10:33.552Z,13.90
2023-04-30T10:15:41.298Z,14.00
2023-04-30T10:20:48.171Z,14.00
2023-04-30T10:25:52.956Z,14.00
2023-04-30T10:30:58.530Z,14.20
2023-04-30T10:36:06.592Z,14.40
2023-04-30T10:41:10.672Z,14.70
2023-04-30T10:46:23.804Z,14.70
2023-04-30T10:51:46.445Z,14.70
2023-04-30T10:56:52.849Z,15.10
2023-04-30T11:02:02.255Z,15.10
2023-04-30T11:07:12.226Z,15.10
2023-04-30T11:12:16.958Z,15.20
2023-04-30T11:17:26.271Z,15.00
2023-04-30T11:22:35.932Z,15.20
2023-04-30T11:27:43.124Z,15.20
2023-04-30T11:32:50.254Z,15.50
2023-04-30T11:37:57.301Z,15.80
2023-04-30T11:43:00.747Z,15.90
2023-04-30T11:48:06.173Z,15.90
2023-04-30T11:53:11.433Z,16.10
2023-04-30T11:58:15.046Z,16.00
2023-04-30T12:03:20.066Z,16.00
2023-04-30T12:08:24.186Z,16.10
2023-04-30T12:13:27.606Z,16.30
2023-04-30T12:18:34.570Z,16.50
2023-04-30T12:23:38.612Z,16.70
2023-04-30T12:28:42.098Z,17.00
2023-04-30T12:33:55.183Z,17.30
2023-04-30T12:39:03.604Z,17.40
2023-04-30T12:44:21.227Z,17.50
2023-04-30T12:49:27.528Z,17.50
2023-04-30T12:54:32.793Z,17.70
2023-04-30T12:59:39.958Z,17.90
2023-04-30T13:04:45.633Z,18.00
2023-04-30T13:09:49.172Z,18.10
2023-04-30T13:14:52.858Z,18.40
2023-04-30T13:19:57.731Z,18.40
2023-04-30T13:25:01.145Z,18.60
2023-04-30T13:30:05.579Z,18.80
2023-04-30T13:35:11.840Z,19.00
2023-04-30T13:40:15.994Z,19.20
2023-04-30T13:45:19.567Z,19.50
2023-04-30T13:50:24.850Z,19.80
2023-04-30T13:55:28.442Z,20.00
2023-04-30T14:00:31.985Z,20.40
2023-04-30T14:05:37.454Z,20.80
2023-04-30T14:10:40.918Z,21.30
2023-04-30T14:15:44.370Z,21.80
2023-04-30T14:20:49.489Z,22.80
2023-04-30T14:25:54.202Z,24.30
2023-04-30T14:30:57.686Z,26.00
2023-04-30T14:36:02.924Z,29.40
2023-04-30T14:41:07.052Z,32.20
2023-04-30T14:46:11.820Z,33.50
2023-04-30T14:51:16.873Z,34.10
2023-04-30T14:56:20.970Z,34.70
2023-04-30T15:01:25.150Z,35.20
2023-04-30T15:06:31.798Z,34.80
2023-04-30T15:11:35.257Z,35.40
2023-04-30T15:16:39.391Z,36.40
2023-04-30T15:21:44.967Z,36.70
2023-04-30T15:26:51.185Z,37.00
2023-04-30T15:31:54.966Z,36.60
2023-04-30T15:37:00.064Z,36.50
2023-04-30T15:42:03.728Z,35.70
2023-04-30T15:47:07.616Z,35.40
2023-04-30T15:52:12.769Z,35.80
2023-04-30T15:57:16.230Z,36.30
2023-04-30T16:02:19.824Z,35.90
2023-04-30T16:07:24.794Z,35.20
2023-04-30T16:12:28.351Z,35.00
2023-04-30T16:17:32.669Z,34.90
2023-04-30T16:22:37.598Z,34.00
2023-04-30T16:27:41.281Z,33.30
2023-04-30T16:32:45.308Z,32.30
2023-04-30T16:37:50.173Z,30.40
2023-04-30T16:42:53.937Z,28.80
2023-04-30T16:47:57.660Z,27.60
2023-04-30T16:53:04.681Z,27.30
2023-04-30T16:58:08.365Z,26.60
2023-04-30T17:03:12.112Z,24.80
2023-04-30T17:08:17.274Z,23.30
2023-04-30T17:13:20.814Z,22.00
2023-04-30T17:18:24.486Z,21.10
2023-04-30T17:23:29.333Z,20.10
2023-04-30T17:28:34.055Z,19.40
2023-04-30T17:33:37.839Z,18.90
2023-04-30T17:38:43.018Z,18.50
2023-04-30T17:43:46.504Z,18.20
2023-04-30T17:48:49.912Z,17.90
2023-04-30T17:53:55.327Z,17.60
2023-04-30T17:58:59.906Z,17.40
2023-04-30T18:04:03.849Z,17.20
2023-04-30T18:09:08.770Z,16.90
2023-04-30T18:14:12.577Z,16.60
2023-04-30T18:19:18.092Z,16.40
2023-04-30T18:24:27.599Z,16.20
2023-04-30T18:29:30.975Z,16.10
2023-04-30T18:34:34.791Z,16.00
2023-04-30T18:39:39.577Z,16.00
2023-04-30T18:44:43.416Z,15.90
2023-04-30T18:49:47.084Z,15.90
2023-04-30T18:54:52.272Z,15.80
2023-04-30T18:59:56.301Z,15.80
2023-04-30T19:05:00.192Z,15.80
2023-04-30T19:10:05.683Z,15.70
2023-04-30T19:15:11.689Z,15.60
2023-04-30T19:20:16.097Z,15.50
2023-04-30T19:25:20.974Z,15.40
2023-04-30T19:30:24.529Z,15.30
2023-04-30T19:35:28.157Z,15.20
2023-04-30T19:40:32.893Z,15.10
2023-04-30T19:45:36.470Z,15.00
2023-04-30T19:50:42.688Z,14.90
2023-04-30T19:55:47.613Z,14.80
2023-04-30T20:00:51.039Z,14.80
2023-04-30T20:05:54.509Z,14.70
2023-04-30T20:11:00.761Z,14.60
2023-04-30T20:16:05.427Z,14.60
2023-04-30T20:21:10.009Z,14.60
2023-04-30T20:26:15.027Z,14.60
2023-04-30T20:31:18.896Z,14.50
2023-04-30T20:36:22.572Z,14.50
2023-04-30T20:41:28.545Z,14.40
2023-04-30T20:46:34.494Z,14.30
2023-04-30T20:51:39.242Z,14.30
2023-04-30T20:56:46.772Z,14.20
2023-04-30T21:01:50.268Z,14.10
2023-04-30T21:06:54.045Z,14.00
2023-04-30T21:11:59.521Z,13.90
2023-04-30T21:17:03.387Z,13.80
2023-04-30T21:22:06.871Z,13.80
2023-04-30T21:27:12.128Z,13.80
2023-04-30T21:32:15.496Z,13.70
2023-04-30T21:37:18.950Z,13.60
2023-04-30T21:42:23.797Z,13.50
2023-04-30T21:47:27.275Z,13.40
2023-04-30T21:52:31.499Z,13.40
2023-04-30T21:57:36.734Z,13.30
2023-04-30T22:02:40.261Z,13.20
2023-04-30T22:07:43.835Z,13.20
2023-04-30T22:12:48.923Z,13.10
2023-04-30T22:17:52.564Z,13.10
2023-04-30T22:22:55.985Z,13.00
2023-04-30T22:28:00.801Z,12.90
